KRPJ

Rochelle Municipal-Koritz Field Airport

Rochelle, Illinois, USA
METAR KRPJ 230455Z AUTO 27007KT 10SM CLR 06/00 A3012 RMK AO2 T00600000
Observed Flight Rules
Oct-23 @ 04:55 UTC (25 minutes ago) Visual Flight Rules
Wind Visibility Clouds
270° at 7 knots 10 miles
  • Clear skies
Temperatures Readings
Current 6°C / 43°F
Dewpoint 0°C / 32°F
Humidity 66%
Altimeter 30.12" Hg
Pressure 1020 hPa
Elevation 238
METAR KRPJ 230455Z AUTO 27007KT 10SM CLR 06/00 A3012 RMK AO2 T00600000
Observed Flight Rules
Oct-23 @ 04:55 UTC
(25 minutes ago)
VFR
Wind Visibility
270° at 7 knots 10 miles
Clouds
  • Clear skies
Temperature Dewpoint
6°C / 43°F 0°C / 32°F
Humidity Altimeter Pressure
66% 30.12" Hg 1020 hPa